Time;durP1;ratioP1;P1;durP2;ratioP2;P2;SDS_P1;SDS_P2;PMS_P1;PMS_P2;Temp;Humidity;BMP_temperature;BMP_pressure;BME280_temperature;BME280_humidity;BME280_pressure;Samples;Min_cycle;Max_cycle;Signal;HPM_P1;HPM_P2
2023/05/18 00:01:42;;;;;;;;;;;;;;;26.58;42.14;94446.34;5038480;28;8736;-61
2023/05/18 00:04:22;;;;;;;;;;;;;;;26.62;41.57;94446.84;5040365;28;7024;-61
2023/05/18 00:07:03;;;;;;;;;;;;;;;26.62;41.63;94452.34;5044569;28;7064;-61
2023/05/18 00:09:40;;;;;;;;;;;;;;;26.62;41.39;94444.09;5047864;28;9007;-61
2023/05/18 00:12:17;;;;;;;;;;;;;;;26.59;41.59;94445.09;5048229;28;7115;-61
2023/05/18 00:14:44;;;;;;;;;;;;;;;26.60;41.46;94443.84;5046375;28;7312;-61
2023/05/18 00:17:20;;;;;;;;;;;;;;;26.61;41.65;94445.34;5039775;28;8913;-61
2023/05/18 00:19:49;;;;;;;;;;;;;;;26.59;41.40;94440.34;5035640;28;9108;-61
2023/05/18 00:22:17;;;;;;;;;;;;;;;26.56;41.14;94432.34;5048661;28;9060;-61
2023/05/18 00:25:00;;;;;;;;;;;;;;;26.59;41.48;94436.81;5045571;28;9438;-61
2023/05/18 00:27:42;;;;;;;;;;;;;;;26.59;41.67;94432.06;5035290;28;7168;-61
2023/05/18 00:30:11;;;;;;;;;;;;;;;26.55;41.99;94428.09;5032138;28;9343;-60
2023/05/18 00:36:46;;;;;;;;;;;;;;;26.56;41.76;94426.81;5044398;28;9157;-61
2023/05/18 00:39:12;;;;;;;;;;;;;;;26.54;41.83;94429.34;5031457;28;7196;-60
2023/05/18 00:41:45;;;;;;;;;;;;;;;26.53;41.87;94419.59;5046141;28;7282;-61
2023/05/18 00:44:14;;;;;;;;;;;;;;;26.54;42.01;94421.81;5047337;28;7175;-61
2023/05/18 00:46:44;;;;;;;;;;;;;;;26.55;41.54;94419.81;5026972;28;8782;-61
2023/05/18 00:49:13;;;;;;;;;;;;;;;26.53;41.28;94414.81;5042314;28;9373;-61
2023/05/18 00:51:45;;;;;;;;;;;;;;;26.53;41.54;94417.59;5046549;28;7225;-61
2023/05/18 00:54:20;;;;;;;;;;;;;;;26.52;41.64;94415.31;5041198;28;7190;-61
2023/05/18 00:56:47;;;;;;;;;;;;;;;26.52;41.72;94409.81;5044037;28;7068;-61
2023/05/18 00:59:33;;;;;;;;;;;;;;;26.52;41.54;94415.31;5028136;28;9226;-61
2023/05/18 01:02:20;;;;;;;;;;;;;;;26.50;41.95;94404.81;5024522;28;9229;-61
2023/05/18 01:04:45;;;;;;;;;;;;;;;26.48;41.98;94404.59;5030694;28;9107;-60
2023/05/18 01:07:15;;;;;;;;;;;;;;;26.50;41.66;94404.06;5048957;28;6856;-61
2023/05/18 01:09:41;;;;;;;;;;;;;;;26.48;41.69;94398.31;5045982;28;8192;-61
2023/05/18 01:12:39;;;;;;;;;;;;;;;26.48;41.57;94398.31;5025118;28;7580;-61
2023/05/18 01:15:31;;;;;;;;;;;;;;;26.49;41.88;94389.50;5042912;28;7022;-61
2023/05/18 01:18:15;;;;;;;;;;;;;;;26.48;41.24;94392.78;5029863;28;7042;-61
2023/05/18 01:21:24;;;;;;;;;;;;;;;26.46;41.34;94389.81;5043527;28;9114;-61
2023/05/18 01:24:24;;;;;;;;;;;;;;;26.45;41.48;94388.31;5036100;28;7082;-61
2023/05/18 01:26:59;;;;;;;;;;;;;;;26.44;41.72;94386.81;5049178;28;7279;-61
2023/05/18 01:29:35;;;;;;;;;;;;;;;26.44;41.73;94390.34;5042199;28;7929;-61
2023/05/18 01:32:08;;;;;;;;;;;;;;;26.44;41.98;94387.56;5034048;28;7004;-61
2023/05/18 01:34:45;;;;;;;;;;;;;;;26.42;41.28;94383.84;5036250;28;8949;-61
2023/05/18 01:37:16;;;;;;;;;;;;;;;26.42;41.67;94378.31;5040319;28;7920;-60
2023/05/18 01:40:04;;;;;;;;;;;;;;;26.42;42.40;94386.59;5049513;28;9005;-61
2023/05/18 01:43:06;;;;;;;;;;;;;;;26.41;41.64;94379.56;5031695;28;9098;-61
2023/05/18 01:45:45;;;;;;;;;;;;;;;26.41;41.55;94380.31;4963300;28;7620;-61
2023/05/18 01:48:19;;;;;;;;;;;;;;;26.40;41.80;94375.34;4984595;28;9128;-61
2023/05/18 01:50:50;;;;;;;;;;;;;;;26.39;41.40;94380.09;4984042;28;7349;-61
2023/05/18 01:53:24;;;;;;;;;;;;;;;26.38;41.91;94377.88;4976984;28;7192;-61
2023/05/18 01:55:54;;;;;;;;;;;;;;;26.33;41.53;94370.38;4990391;28;7058;-61
2023/05/18 01:58:43;;;;;;;;;;;;;;;26.35;41.98;94370.63;4977847;28;7110;-61
2023/05/18 02:01:09;;;;;;;;;;;;;;;26.35;41.67;94368.59;4994308;28;7115;-61
2023/05/18 02:03:38;;;;;;;;;;;;;;;26.34;42.17;94371.88;4993922;28;7271;-61
2023/05/18 02:06:19;;;;;;;;;;;;;;;26.35;41.36;94367.84;4980054;28;7787;-61
2023/05/18 02:09:36;;;;;;;;;;;;;;;26.35;41.60;94367.84;4986999;28;9443;-61
2023/05/18 02:12:20;;;;;;;;;;;;;;;26.33;42.05;94362.09;4918705;29;8715;-61
2023/05/18 02:15:43;;;;;;;;;;;;;;;26.32;41.96;94358.59;4934170;29;8707;-61
2023/05/18 02:18:42;;;;;;;;;;;;;;;26.30;42.00;94363.88;4930014;29;9253;-61
2023/05/18 02:21:29;;;;;;;;;;;;;;;26.30;41.55;94360.38;4916699;29;7045;-61
2023/05/18 02:23:57;;;;;;;;;;;;;;;26.31;41.97;94362.63;4916115;29;9067;-61
2023/05/18 02:26:29;;;;;;;;;;;;;;;26.30;42.09;94363.13;4909475;29;7200;-61
2023/05/18 02:29:00;;;;;;;;;;;;;;;26.28;42.21;94352.63;4913771;29;9428;-61
2023/05/18 02:32:02;;;;;;;;;;;;;;;26.26;41.75;94357.91;4916190;29;7256;-61
2023/05/18 02:34:55;;;;;;;;;;;;;;;26.26;41.65;94357.91;4883615;29;6994;-61
2023/05/18 02:37:23;;;;;;;;;;;;;;;26.21;42.29;94353.19;4878104;29;9014;-61
2023/05/18 02:40:23;;;;;;;;;;;;;;;26.25;42.19;94356.44;4878025;29;7042;-61
2023/05/18 02:43:04;;;;;;;;;;;;;;;26.22;42.18;94354.69;4863087;29;7478;-61
2023/05/18 02:46:03;;;;;;;;;;;;;;;26.21;42.19;94349.72;4872321;29;8966;-61
2023/05/18 02:48:28;;;;;;;;;;;;;;;26.23;41.94;94350.66;4837854;29;8234;-61
2023/05/18 02:51:12;;;;;;;;;;;;;;;26.23;41.50;94358.22;4859451;29;7198;-61
2023/05/18 02:53:42;;;;;;;;;;;;;;;26.19;42.22;94355.72;4862819;29;6975;-61
2023/05/18 02:56:11;;;;;;;;;;;;;;;26.19;41.97;94352.97;4886884;29;9089;-61
2023/05/18 02:58:47;;;;;;;;;;;;;;;26.19;41.54;94357.75;4916291;29;9039;-61
2023/05/18 03:01:33;;;;;;;;;;;;;;;26.18;41.85;94357.00;4915703;29;7065;-61
2023/05/18 03:04:02;;;;;;;;;;;;;;;26.19;42.38;94361.22;4915924;29;7112;-61
2023/05/18 03:06:41;;;;;;;;;;;;;;;26.17;41.84;94353.47;4913674;29;8484;-61
2023/05/18 03:09:08;;;;;;;;;;;;;;;26.14;41.64;94348.25;4920974;28;8446;-60
2023/05/18 03:11:54;;;;;;;;;;;;;;;26.12;42.09;94345.28;4972420;28;9118;-61
2023/05/18 03:14:49;;;;;;;;;;;;;;;26.13;41.73;94355.78;4965843;28;7140;-61
2023/05/18 03:21:20;;;;;;;;;;;;;;;26.14;42.32;94354.50;4932286;29;7022;-61
2023/05/18 03:23:48;;;;;;;;;;;;;;;26.12;41.58;94351.53;4932887;28;7257;-61
2023/05/18 03:26:29;;;;;;;;;;;;;;;26.10;41.76;94348.53;4972715;28;6985;-61
2023/05/18 03:29:24;;;;;;;;;;;;;;;26.10;42.19;94354.03;4967411;28;9155;-61
2023/05/18 03:32:10;;;;;;;;;;;;;;;26.07;42.22;94349.53;4961978;28;9095;-61
2023/05/18 03:34:54;;;;;;;;;;;;;;;26.05;42.30;94346.56;4972636;28;9031;-61
2023/05/18 03:37:20;;;;;;;;;;;;;;;26.06;42.41;94358.31;4948090;28;9182;-61
2023/05/18 03:40:26;;;;;;;;;;;;;;;26.04;41.86;94350.56;4972118;28;7595;-61
2023/05/18 03:42:59;;;;;;;;;;;;;;;26.03;42.06;94343.53;4957321;28;7255;-61
2023/05/18 03:46:02;;;;;;;;;;;;;;;26.04;41.79;94350.56;4967107;28;8956;-61
2023/05/18 03:48:41;;;;;;;;;;;;;;;26.03;41.78;94345.56;4971613;28;7088;-61
2023/05/18 03:51:41;;;;;;;;;;;;;;;26.03;42.22;94353.84;4964792;28;8694;-61
2023/05/18 03:54:14;;;;;;;;;;;;;;;26.01;42.33;94357.09;4943129;28;7588;-61
2023/05/18 03:56:57;;;;;;;;;;;;;;;26.03;41.96;94357.31;4972243;28;9054;-61
2023/05/18 03:59:58;;;;;;;;;;;;;;;26.02;42.00;94358.59;4948004;28;7396;-61
2023/05/18 04:02:55;;;;;;;;;;;;;;;26.01;42.40;94359.84;4892947;29;8161;-61
2023/05/18 04:05:27;;;;;;;;;;;;;;;25.98;41.90;94363.66;4900974;29;7261;-61
2023/05/18 04:07:56;;;;;;;;;;;;;;;25.96;42.17;94368.19;4880485;29;7444;-61
2023/05/18 04:10:56;;;;;;;;;;;;;;;25.98;42.29;94357.38;4896449;29;9001;-61
2023/05/18 04:13:38;;;;;;;;;;;;;;;25.97;42.53;94364.91;4837981;29;8265;-61
2023/05/18 04:16:14;;;;;;;;;;;;;;;25.96;42.41;94365.41;4842340;29;9457;-61
2023/05/18 04:19:29;;;;;;;;;;;;;;;25.94;42.53;94371.47;4851212;29;7022;-61
2023/05/18 04:22:08;;;;;;;;;;;;;;;25.94;42.58;94368.69;4842336;29;8714;-61
2023/05/18 04:24:46;;;;;;;;;;;;;;;25.93;42.34;94371.94;4840943;29;8953;-61
2023/05/18 04:28:10;;;;;;;;;;;;;;;25.96;42.25;94376.44;4818174;29;9458;-61
2023/05/18 04:30:38;;;;;;;;;;;;;;;25.91;41.94;94375.22;4842590;29;7524;-61
2023/05/18 04:33:33;;;;;;;;;;;;;;;25.92;42.78;94387.00;4845959;29;7045;-61
2023/05/18 04:36:30;;;;;;;;;;;;;;;25.91;42.68;94383.50;4844836;29;7305;-61
2023/05/18 04:39:40;;;;;;;;;;;;;;;25.91;41.99;94380.75;4882689;29;7185;-61
2023/05/18 04:42:06;;;;;;;;;;;;;;;25.91;41.95;94377.22;4911078;29;9015;-61
2023/05/18 04:45:04;;;;;;;;;;;;;;;25.89;42.04;94383.25;4914541;29;9329;-61
2023/05/18 04:47:39;;;;;;;;;;;;;;;25.88;42.28;94379.00;4914312;29;7018;-61
2023/05/18 04:50:24;;;;;;;;;;;;;;;25.89;42.33;94383.25;4975414;28;8998;-61
2023/05/18 04:53:07;;;;;;;;;;;;;;;25.86;42.50;94383.56;4983822;28;8946;-61
2023/05/18 04:55:37;;;;;;;;;;;;;;;25.86;42.39;94387.03;4991636;28;7291;-61
2023/05/18 04:58:04;;;;;;;;;;;;;;;25.87;42.10;94385.78;4976401;28;7277;-62
2023/05/18 05:00:41;;;;;;;;;;;;;;;25.86;42.23;94394.56;4979424;28;7052;-62
2023/05/18 05:03:21;;;;;;;;;;;;;;;25.87;42.11;94394.06;4992995;28;9114;-61
2023/05/18 05:05:46;;;;;;;;;;;;;;;25.83;42.92;94395.59;4993585;28;7059;-61
2023/05/18 05:08:15;;;;;;;;;;;;;;;25.83;42.43;94393.59;4997795;28;7020;-61
2023/05/18 05:10:45;;;;;;;;;;;;;;;25.85;42.11;94393.81;4996358;28;7303;-61
2023/05/18 05:13:13;;;;;;;;;;;;;;;25.84;41.95;94389.56;5038855;28;9055;-61
2023/05/18 05:15:39;;;;;;;;;;;;;;;25.83;42.03;94395.59;5050935;28;7131;-61
2023/05/18 05:18:15;;;;;;;;;;;;;;;25.82;42.53;94400.34;5045936;28;7278;-61
2023/05/18 05:21:30;;;;;;;;;;;;;;;25.83;42.35;94393.59;5037648;28;8660;-61
2023/05/18 05:24:16;;;;;;;;;;;;;;;25.82;42.71;94391.31;4952829;28;8248;-61
2023/05/18 05:26:42;;;;;;;;;;;;;;;25.80;42.67;94388.34;4972721;28;9588;-61
2023/05/18 05:29:08;;;;;;;;;;;;;;;25.80;42.25;94394.59;4965763;28;7337;-61
2023/05/18 05:31:33;;;;;;;;;;;;;;;25.81;41.84;94401.63;4970781;28;7187;-61
2023/05/18 05:34:04;;;;;;;;;;;;;;;25.79;42.20;94386.84;4970401;28;9112;-61
2023/05/18 05:37:05;;;;;;;;;;;;;;;25.79;41.87;94384.09;4953789;28;8496;-61
2023/05/18 05:40:09;;;;;;;;;;;;;;;25.80;42.29;94397.34;4939967;28;7215;-61
2023/05/18 05:42:54;;;;;;;;;;;;;;;25.76;41.74;94396.13;4917976;29;7089;-61
2023/05/18 05:45:38;;;;;;;;;;;;;;;25.79;42.68;94400.63;4918827;29;7333;-61
2023/05/18 05:48:04;;;;;;;;;;;;;;;25.80;42.79;94405.63;4928289;28;9106;-61
2023/05/18 05:50:34;;;;;;;;;;;;;;;25.78;42.40;94396.38;4929124;28;7287;-61
2023/05/18 05:53:06;;;;;;;;;;;;;;;25.77;43.13;94397.63;4910670;28;9045;-61
2023/05/18 05:55:39;;;;;;;;;;;;;;;25.80;42.82;94397.34;4909310;29;7821;-61
2023/05/18 05:58:16;;;;;;;;;;;;;;;25.80;41.98;94402.88;4933950;28;9033;-61
2023/05/18 06:00:45;;;;;;;;;;;;;;;25.81;42.26;94404.38;4913674;29;9181;-61
2023/05/18 06:03:48;;;;;;;;;;;;;;;25.83;42.65;94410.13;4910727;29;7466;-61
2023/05/18 06:06:16;;;;;;;;;;;;;;;25.86;42.76;94411.84;4924739;29;9066;-61
2023/05/18 06:09:00;;;;;;;;;;;;;;;25.90;42.68;94409.53;4914638;29;6986;-61
2023/05/18 06:11:41;;;;;;;;;;;;;;;25.94;42.47;94418.31;4932430;29;9227;-61
2023/05/18 06:14:43;;;;;;;;;;;;;;;25.98;42.59;94418.03;4952578;28;7240;-61
2023/05/18 06:17:23;;;;;;;;;;;;;;;26.04;42.32;94422.22;5007314;28;7263;-61
2023/05/18 06:19:52;;;;;;;;;;;;;;;26.09;42.22;94426.22;5046666;28;7111;-61
2023/05/18 06:22:24;;;;;;;;;;;;;;;26.13;41.94;94421.94;5022592;28;9327;-62
2023/05/18 06:24:56;;;;;;;;;;;;;;;26.20;41.81;94426.16;5046305;28;7239;-62
2023/05/18 06:27:37;;;;;;;;;;;;;;;26.25;42.10;94424.59;5032533;28;7386;-61
2023/05/18 06:30:25;;;;;;;;;;;;;;;26.28;41.68;94432.59;5045132;28;9191;-62
2023/05/18 06:33:09;;;;;;;;;;;;;;;26.33;41.81;94437.31;5029880;28;8497;-62
2023/05/18 06:35:36;;;;;;;;;;;;;;;26.34;41.96;94435.31;5028478;28;8200;-62
2023/05/18 06:38:15;;;;;;;;;;;;;;;26.40;41.54;94436.00;5043980;28;7087;-61
2023/05/18 06:40:50;;;;;;;;;;;;;;;26.48;41.19;94434.16;5034097;28;9040;-62
2023/05/18 06:43:25;;;;;;;;;;;;;;;26.56;41.54;94435.09;5042635;28;9068;-61
2023/05/18 06:45:55;;;;;;;;;;;;;;;26.64;41.09;94433.28;5044503;28;7009;-62
2023/05/18 06:48:25;;;;;;;;;;;;;;;26.71;41.37;94438.19;5025738;28;9600;-62
2023/05/18 06:50:57;;;;;;;;;;;;;;;26.76;41.16;94435.44;5028318;28;7229;-61
2023/05/18 06:53:45;;;;;;;;;;;;;;;26.82;41.05;94444.38;5028856;28;8950;-61
2023/05/18 06:56:11;;;;;;;;;;;;;;;26.88;40.49;94447.84;5021749;28;7215;-61
2023/05/18 06:58:41;;;;;;;;;;;;;;;26.96;40.78;94447.25;5033783;28;7018;-61
2023/05/18 07:01:21;;;;;;;;;;;;;;;26.99;41.29;94454.50;5022700;28;7451;-61
2023/05/18 07:04:00;;;;;;;;;;;;;;;26.99;41.07;94446.97;5044418;28;7104;-61
2023/05/18 07:06:42;;;;;;;;;;;;;;;27.03;41.52;94447.44;5032470;28;7389;-61
2023/05/18 07:09:20;;;;;;;;;;;;;;;27.05;41.58;94444.91;5022299;28;9418;-61
2023/05/18 07:12:11;;;;;;;;;;;;;;;27.09;41.25;94450.88;5045380;28;7111;-61
2023/05/18 07:14:57;;;;;;;;;;;;;;;27.09;41.54;94450.88;5033813;28;7034;-61
2023/05/18 07:17:23;;;;;;;;;;;;;;;27.09;41.21;94439.84;5032098;28;7155;-61
2023/05/18 07:20:06;;;;;;;;;;;;;;;27.09;41.42;94437.06;5025734;28;7470;-61
2023/05/18 07:22:46;;;;;;;;;;;;;;;27.11;41.17;94442.81;5033708;28;8972;-61
2023/05/18 07:25:22;;;;;;;;;;;;;;;27.13;41.45;94456.84;5041825;28;9108;-61
2023/05/18 07:27:54;;;;;;;;;;;;;;;27.16;41.40;94450.31;5026911;28;7333;-61
2023/05/18 07:30:25;;;;;;;;;;;;;;;27.18;41.23;94458.81;5023072;28;9458;-61
2023/05/18 07:32:53;;;;;;;;;;;;;;;27.18;41.27;94455.31;5047619;28;8752;-61
2023/05/18 07:35:32;;;;;;;;;;;;;;;27.21;41.44;94454.28;5046074;28;9453;-61
2023/05/18 07:37:59;;;;;;;;;;;;;;;27.19;41.52;94456.78;5036182;28;7526;-61
2023/05/18 07:40:42;;;;;;;;;;;;;;;27.21;41.25;94457.75;5040102;28;9077;-61
2023/05/18 07:43:18;;;;;;;;;;;;;;;27.21;41.48;94457.75;5045878;28;7262;-61
2023/05/18 07:46:04;;;;;;;;;;;;;;;27.21;41.22;94465.31;5048516;28;8286;-61
2023/05/18 07:49:00;;;;;;;;;;;;;;;27.23;41.30;94465.53;5022568;28;9045;-61
2023/05/18 07:51:35;;;;;;;;;;;;;;;27.20;41.60;94461.03;5041406;28;7024;-61
2023/05/18 07:54:13;;;;;;;;;;;;;;;27.20;41.51;94461.03;5024584;28;9080;-61
2023/05/18 07:56:46;;;;;;;;;;;;;;;27.19;41.58;94470.59;5025674;28;9427;-62
2023/05/18 07:59:17;;;;;;;;;;;;;;;27.19;41.34;94462.31;5022510;28;7063;-61
2023/05/18 08:01:44;;;;;;;;;;;;;;;27.20;41.63;94461.81;5035856;28;7167;-62
2023/05/18 08:04:12;;;;;;;;;;;;;;;27.21;41.58;94473.59;5028964;28;7029;-61
2023/05/18 08:06:40;;;;;;;;;;;;;;;27.20;42.03;94472.84;5020877;28;9006;-62
2023/05/18 08:09:06;;;;;;;;;;;;;;;27.19;41.63;94474.09;5038984;28;9389;-62
2023/05/18 08:11:32;;;;;;;;;;;;;;;27.19;41.40;94465.06;5018074;28;9230;-62
2023/05/18 08:14:30;;;;;;;;;;;;;;;27.17;41.37;94468.34;5030942;28;9025;-62
2023/05/18 08:17:10;;;;;;;;;;;;;;;27.15;41.71;94479.16;4965636;28;7001;-61
2023/05/18 08:20:20;;;;;;;;;;;;;;;27.16;41.46;94471.63;4973134;28;9064;-61
2023/05/18 08:23:22;;;;;;;;;;;;;;;27.14;41.64;94468.66;4964402;28;9073;-61
2023/05/18 08:26:25;;;;;;;;;;;;;;;27.14;41.56;94474.94;4966161;28;9045;-61
2023/05/18 08:29:08;;;;;;;;;;;;;;;27.10;40.97;94463.41;4969300;28;9066;-61
2023/05/18 08:31:53;;;;;;;;;;;;;;;27.11;41.73;94475.97;4966924;28;9030;-62
2023/05/18 08:34:35;;;;;;;;;;;;;;;27.09;41.62;94478.50;4976824;28;9326;-62
2023/05/18 08:37:02;;;;;;;;;;;;;;;27.09;41.81;94484.00;4971128;28;9161;-62
2023/05/18 08:39:58;;;;;;;;;;;;;;;27.07;41.63;94483.78;4971375;28;9329;-63
2023/05/18 08:43:12;;;;;;;;;;;;;;;27.06;41.58;94479.50;4915935;29;9155;-63
2023/05/18 08:45:46;;;;;;;;;;;;;;;27.04;41.67;94475.78;4899966;29;7086;-62
2023/05/18 08:48:46;;;;;;;;;;;;;;;27.05;41.73;94480.03;4915466;29;9298;-62
2023/05/18 08:51:21;;;;;;;;;;;;;;;27.02;41.91;94490.09;4834463;29;8725;-62
2023/05/18 08:53:59;;;;;;;;;;;;;;;27.04;41.16;94487.56;4860283;29;8750;-62
2023/05/18 08:56:55;;;;;;;;;;;;;;;27.04;41.41;94487.56;4889813;29;6874;-62
2023/05/18 08:59:25;;;;;;;;;;;;;;;27.03;41.84;94490.84;4857928;29;9670;-62
2023/05/18 09:01:53;;;;;;;;;;;;;;;27.02;41.78;94486.59;4857720;29;7024;-61
2023/05/18 09:04:47;;;;;;;;;;;;;;;27.01;42.00;94496.91;4854954;29;8717;-61
2023/05/18 09:07:27;;;;;;;;;;;;;;;26.99;41.87;94485.59;4856092;29;7336;-61
2023/05/18 09:10:04;;;;;;;;;;;;;;;27.00;41.79;94491.88;4854997;29;7025;-61
2023/05/18 09:13:01;;;;;;;;;;;;;;;27.00;41.80;94491.88;4844030;29;8781;-62
2023/05/18 09:15:27;;;;;;;;;;;;;;;26.97;41.95;94487.41;4804772;29;7067;-62
2023/05/18 09:17:55;;;;;;;;;;;;;;;26.95;42.19;94485.16;4809122;29;8996;-62
2023/05/18 09:20:39;;;;;;;;;;;;;;;26.95;42.00;94492.72;4880862;29;7242;-61
2023/05/18 09:23:18;;;;;;;;;;;;;;;26.95;42.22;94487.91;4876631;29;8157;-62
2023/05/18 09:26:13;;;;;;;;;;;;;;;26.96;42.25;94497.69;4880976;29;8846;-62
2023/05/18 09:28:52;;;;;;;;;;;;;;;26.93;41.39;94498.72;4859974;29;7157;-62
2023/05/18 09:31:20;;;;;;;;;;;;;;;26.93;42.48;94493.22;4875780;29;9180;-62
2023/05/18 09:34:05;;;;;;;;;;;;;;;26.92;41.94;94506.25;4874254;29;7127;-62
2023/05/18 09:36:34;;;;;;;;;;;;;;;26.90;42.70;94502.53;4891197;29;7273;-62
2023/05/18 09:39:13;;;;;;;;;;;;;;;26.91;42.05;94506.78;4895245;29;7026;-62
2023/05/18 09:42:08;;;;;;;;;;;;;;;26.91;42.22;94515.06;4892623;29;9508;-62
2023/05/18 09:44:50;;;;;;;;;;;;;;;26.88;41.92;94507.81;4827308;29;9077;-62
2023/05/18 09:47:34;;;;;;;;;;;;;;;26.89;42.04;94503.78;4853061;29;7341;-62
2023/05/18 09:50:21;;;;;;;;;;;;;;;26.87;42.21;94507.06;4852967;29;7055;-62
2023/05/18 09:52:52;;;;;;;;;;;;;;;26.87;42.15;94504.31;4854347;29;8809;-62
2023/05/18 09:55:50;;;;;;;;;;;;;;;26.87;42.23;94511.84;4875408;29;7306;-62
2023/05/18 09:58:30;;;;;;;;;;;;;;;26.86;41.95;94502.81;4873795;29;7275;-62
2023/05/18 10:01:40;;;;;;;;;;;;;;;26.88;42.26;94508.56;4873578;29;7049;-62
2023/05/18 10:04:21;;;;;;;;;;;;;;;26.88;41.89;94511.31;4877526;29;8977;-62
2023/05/18 10:07:00;;;;;;;;;;;;;;;26.89;42.39;94509.31;4904457;29;7891;-63
2023/05/18 10:09:30;;;;;;;;;;;;;;;26.88;41.89;94510.59;4907516;29;7240;-62
2023/05/18 10:11:57;;;;;;;;;;;;;;;26.88;42.54;94510.59;4903706;29;9022;-62
2023/05/18 10:14:26;;;;;;;;;;;;;;;26.90;42.33;94508.06;4901667;29;8779;-62
2023/05/18 10:16:55;;;;;;;;;;;;;;;26.89;42.31;94509.31;4886039;29;9067;-62
2023/05/18 10:19:43;;;;;;;;;;;;;;;26.88;41.93;94508.56;4910226;29;8353;-61
2023/05/18 10:22:36;;;;;;;;;;;;;;;26.89;42.23;94517.59;5041306;28;7281;-62
2023/05/18 10:25:04;;;;;;;;;;;;;;;26.88;42.33;94508.56;5026995;28;7363;-61
2023/05/18 10:28:04;;;;;;;;;;;;;;;26.89;42.02;94515.59;5041300;28;7955;-61
2023/05/18 10:30:40;;;;;;;;;;;;;;;26.86;41.96;94508.31;4967381;28;7246;-62
2023/05/18 10:33:09;;;;;;;;;;;;;;;26.89;42.80;94509.31;4968852;28;8575;-62
2023/05/18 10:35:38;;;;;;;;;;;;;;;26.88;42.64;94505.78;4967082;28;7134;-62
2023/05/18 10:38:06;;;;;;;;;;;;;;;26.91;42.49;94506.78;4960099;28;9148;-61
2023/05/18 10:40:34;;;;;;;;;;;;;;;26.92;42.41;94507.53;4966415;28;8873;-63
2023/05/18 10:43:18;;;;;;;;;;;;;;;26.88;42.93;94500.28;4982232;28;7385;-62
2023/05/18 10:46:06;;;;;;;;;;;;;;;26.93;43.11;94507.00;4983838;28;7294;-62
2023/05/18 10:48:50;;;;;;;;;;;;;;;26.94;42.99;94507.75;4987256;28;7047;-62
2023/05/18 10:51:55;;;;;;;;;;;;;;;26.94;43.00;94505.75;4982285;28;7103;-61
2023/05/18 10:54:23;;;;;;;;;;;;;;;26.93;43.31;94501.47;4963034;28;7033;-62
2023/05/18 10:56:52;;;;;;;;;;;;;;;26.92;44.17;94499.25;4965228;28;7140;-63
2023/05/18 10:59:49;;;;;;;;;;;;;;;26.92;44.25;94502.75;4970846;28;9313;-62
2023/05/18 11:02:18;;;;;;;;;;;;;;;26.94;43.68;94505.75;4970462;28;7096;-63
2023/05/18 11:05:04;;;;;;;;;;;;;;;26.94;44.04;94511.28;4969052;28;7877;-62
2023/05/18 11:08:06;;;;;;;;;;;;;;;26.94;43.99;94505.00;4979027;28;7262;-62
2023/05/18 11:10:45;;;;;;;;;;;;;;;26.92;43.59;94510.28;4930616;28;6852;-62
2023/05/18 11:13:29;;;;;;;;;;;;;;;26.92;43.83;94519.31;4932511;28;9116;-62
2023/05/18 11:16:33;;;;;;;;;;;;;;;26.93;43.85;94520.81;4949369;28;8771;-62
2023/05/18 11:19:14;;;;;;;;;;;;;;;26.92;43.61;94520.06;4931393;28;7474;-62
2023/05/18 11:21:54;;;;;;;;;;;;;;;26.92;43.58;94514.53;4951261;28;8919;-62
2023/05/18 11:25:02;;;;;;;;;;;;;;;26.94;43.40;94510.53;4945787;28;9618;-62
2023/05/18 11:27:40;;;;;;;;;;;;;;;26.94;43.69;94516.03;4888010;29;9123;-62
2023/05/18 11:30:50;;;;;;;;;;;;;;;26.95;43.32;94503.75;4872810;29;7003;-62
2023/05/18 11:33:23;;;;;;;;;;;;;;;26.92;43.27;94502.00;4898801;29;9336;-62
2023/05/18 11:36:31;;;;;;;;;;;;;;;26.91;43.21;94504.00;4877037;29;9039;-62
2023/05/18 11:39:10;;;;;;;;;;;;;;;26.91;43.15;94504.00;4908747;29;7258;-62
2023/05/18 11:42:04;;;;;;;;;;;;;;;26.89;43.53;94499.03;4931108;28;7381;-62
2023/05/18 11:44:32;;;;;;;;;;;;;;;26.89;43.59;94504.53;4942566;28;9013;-62
2023/05/18 11:47:17;;;;;;;;;;;;;;;26.92;43.07;94508.28;4950462;28;7112;-61
2023/05/18 11:50:32;;;;;;;;;;;;;;;26.94;42.95;94503.00;4959645;28;7468;-62
2023/05/18 11:53:31;;;;;;;;;;;;;;;26.96;42.62;94502.47;4946729;28;7276;-62
2023/05/18 11:55:59;;;;;;;;;;;;;;;26.94;42.63;94500.22;4961741;28;8712;-61
2023/05/18 11:58:29;;;;;;;;;;;;;;;26.96;42.45;94503.22;5006556;28;7440;-62
2023/05/18 12:01:10;;;;;;;;;;;;;;;26.99;43.10;94504.19;5030321;28;7476;-62
2023/05/18 12:03:56;;;;;;;;;;;;;;;27.00;42.83;94503.69;5041909;28;9333;-62
2023/05/18 12:06:31;;;;;;;;;;;;;;;27.02;42.78;94501.16;5030484;28;9097;-61
2023/05/18 12:09:30;;;;;;;;;;;;;;;27.05;43.06;94499.38;5044606;28;7250;-62
2023/05/18 12:12:18;;;;;;;;;;;;;;;27.04;42.65;94506.16;5042601;28;9244;-61
2023/05/18 12:15:22;;;;;;;;;;;;;;;27.05;43.26;94497.38;5025937;28;9032;-61
2023/05/18 12:18:01;;;;;;;;;;;;;;;27.06;43.11;94501.59;4988424;28;7253;-61
2023/05/18 12:20:39;;;;;;;;;;;;;;;27.10;43.28;94487.53;5002785;28;6971;-61
2023/05/18 12:23:17;;;;;;;;;;;;;;;27.12;42.96;94496.03;5002406;28;9271;-62
2023/05/18 12:26:29;;;;;;;;;;;;;;;27.14;42.33;94491.50;4988361;28;7038;-61
2023/05/18 12:29:01;;;;;;;;;;;;;;;27.18;42.07;94494.72;4998261;28;7232;-62
2023/05/18 12:31:56;;;;;;;;;;;;;;;27.21;41.32;94488.13;4997956;28;9152;-62
2023/05/18 12:34:38;;;;;;;;;;;;;;;27.17;40.74;94490.44;4930489;29;9045;-62
2023/05/18 12:37:09;;;;;;;;;;;;;;;27.11;40.72;94487.00;4925534;29;7234;-61
2023/05/18 12:40:07;;;;;;;;;;;;;;;27.09;41.27;94489.53;4909521;29;8181;-61
2023/05/18 12:46:27;;;;;;;;;;;;;;;27.05;41.96;94488.31;4911639;29;7048;-60
2023/05/18 12:49:23;;;;;;;;;;;;;;;27.00;41.81;94487.13;4892643;29;9162;-60
2023/05/18 12:52:15;;;;;;;;;;;;;;;26.98;41.53;94481.38;4886868;29;7204;-61
2023/05/18 12:54:59;;;;;;;;;;;;;;;27.01;41.56;94485.09;4899274;29;9032;-61
2023/05/18 12:57:40;;;;;;;;;;;;;;;27.01;41.69;94488.63;4899077;29;7284;-62
2023/05/18 13:00:21;;;;;;;;;;;;;;;27.00;42.05;94486.38;4902882;29;9036;-61
2023/05/18 13:03:06;;;;;;;;;;;;;;;27.00;41.91;94484.34;4896108;29;7291;-60
2023/05/18 13:06:03;;;;;;;;;;;;;;;27.00;41.76;94486.38;4893137;29;8746;-61
2023/05/18 13:09:23;;;;;;;;;;;;;;;27.00;42.16;94484.34;4878841;29;7272;-61
2023/05/18 13:12:00;;;;;;;;;;;;;;;27.03;42.48;94485.34;4868203;29;7101;-61
2023/05/18 13:14:41;;;;;;;;;;;;;;;27.04;41.73;94487.56;4869103;29;8844;-61
2023/05/18 13:17:07;;;;;;;;;;;;;;;27.06;42.28;94493.31;4871558;29;9413;-61
2023/05/18 13:19:58;;;;;;;;;;;;;;;27.08;42.14;94484.53;4861877;29;7495;-62
2023/05/18 13:22:28;;;;;;;;;;;;;;;27.06;42.08;94485.03;4870233;29;8746;-61
2023/05/18 13:25:13;;;;;;;;;;;;;;;27.05;41.90;94483.56;4884043;29;6932;-61
2023/05/18 13:27:39;;;;;;;;;;;;;;;27.03;42.16;94491.63;4890437;29;7454;-61
2023/05/18 13:30:15;;;;;;;;;;;;;;;27.05;42.07;94496.59;4935196;28;9171;-61
2023/05/18 13:33:01;;;;;;;;;;;;;;;27.07;41.63;94489.31;4929949;28;9128;-61
2023/05/18 13:35:41;;;;;;;;;;;;;;;27.01;41.57;94482.34;4935764;28;9214;-61
2023/05/18 13:38:13;;;;;;;;;;;;;;;27.03;41.08;94488.09;4932660;28;7565;-61
2023/05/18 13:40:44;;;;;;;;;;;;;;;26.99;41.30;94485.59;4952300;28;9276;-62
2023/05/18 13:43:23;;;;;;;;;;;;;;;27.00;41.30;94481.59;4942185;28;7030;-61
2023/05/18 13:45:59;;;;;;;;;;;;;;;27.00;41.10;94489.88;4992550;28;7221;-62
2023/05/18 13:48:36;;;;;;;;;;;;;;;26.97;41.12;94487.41;5046858;28;7285;-62
2023/05/18 13:51:11;;;;;;;;;;;;;;;26.98;41.51;94475.84;5025471;28;7017;-61
2023/05/18 13:53:38;;;;;;;;;;;;;;;26.98;40.38;94483.38;5018532;28;7278;-61
2023/05/18 13:56:05;;;;;;;;;;;;;;;26.95;40.73;94476.88;5053026;28;7033;-61
2023/05/18 13:58:44;;;;;;;;;;;;;;;26.98;40.25;94483.38;5018970;28;9323;-61
2023/05/18 14:01:13;;;;;;;;;;;;;;;26.94;40.19;94469.88;5032835;28;7249;-60
2023/05/18 14:03:39;;;;;;;;;;;;;;;26.96;40.80;94478.38;5046327;28;9459;-61
2023/05/18 14:06:15;;;;;;;;;;;;;;;26.98;40.06;94475.09;5029988;28;9256;-61
2023/05/18 14:08:51;;;;;;;;;;;;;;;26.97;40.99;94477.09;5033147;28;9391;-61
2023/05/18 14:11:33;;;;;;;;;;;;;;;26.96;40.73;94478.38;5026198;28;7437;-61
2023/05/18 14:14:01;;;;;;;;;;;;;;;26.98;40.78;94469.56;5036016;28;9309;-61
2023/05/18 14:16:28;;;;;;;;;;;;;;;26.97;40.34;94471.56;5024693;28;7062;-61
2023/05/18 14:18:54;;;;;;;;;;;;;;;26.99;40.64;94471.81;5043972;28;8965;-62
2023/05/18 14:21:20;;;;;;;;;;;;;;;26.98;40.54;94469.56;5043365;28;9126;-62